Time;durP1;ratioP1;P1;durP2;ratioP2;P2;SDS_P1;SDS_P2;PMS_P1;PMS_P2;Temp;Humidity;BMP_temperature;BMP_pressure;BME280_temperature;BME280_humidity;BME280_pressure;Samples;Min_cycle;Max_cycle;Signal;HPM_P1;HPM_P2
2023/04/23 00:01:48;;;;;;;5.05;0.22;;;;;;;8.94;48.83;100893.09;5105622;27;20043;-81
2023/04/23 00:04:18;;;;;;;0.88;0.30;;;;;;;8.91;48.82;100885.31;5098835;28;20080;-81
2023/04/23 00:06:47;;;;;;;2.30;0.22;;;;;;;8.87;49.03;100883.59;5112108;28;20058;-81
2023/04/23 00:09:16;;;;;;;2.33;0.28;;;;;;;8.86;49.03;100876.69;5100466;28;20094;-82
2023/04/23 00:11:43;;;;;;;0.95;0.30;;;;;;;8.82;49.06;100877.56;5107060;28;20093;-82
2023/04/23 00:14:11;;;;;;;1.42;0.25;;;;;;;8.80;49.21;100884.56;5112662;28;20111;-81
2023/04/23 00:16:39;;;;;;;9.43;1.38;;;;;;;8.76;49.14;100892.38;5111345;28;20050;-82
2023/04/23 00:19:06;;;;;;;1.08;0.20;;;;;;;8.74;49.50;100890.69;5114314;28;20054;-81
2023/04/23 00:21:35;;;;;;;0.60;0.30;;;;;;;8.70;49.52;100884.63;5104958;28;20046;-82
2023/04/23 00:24:02;;;;;;;1.00;0.30;;;;;;;8.68;49.10;100875.97;5105040;28;20772;-81
2023/04/23 00:26:29;;;;;;;5.30;1.17;;;;;;;8.65;49.33;100877.72;5104221;28;20492;-81
2023/04/23 00:28:55;;;;;;;4.68;1.95;;;;;;;8.60;49.35;100875.19;5106910;28;20509;-81
2023/04/23 00:31:23;;;;;;;1.67;0.35;;;;;;;8.57;49.47;100870.00;5111447;28;20622;-81
2023/04/23 00:33:50;;;;;;;2.88;1.00;;;;;;;8.54;49.77;100870.03;5113065;28;20044;-81
2023/04/23 00:36:17;;;;;;;9.18;1.65;;;;;;;8.50;49.77;100869.16;5100253;28;20492;-81
2023/04/23 00:38:45;;;;;;;1.10;0.50;;;;;;;8.46;49.95;100869.22;5103742;28;20044;-81
2023/04/23 00:41:13;;;;;;;3.15;0.35;;;;;;;8.43;49.97;100869.25;5104538;28;20043;-81
2023/04/23 00:43:40;;;;;;;0.60;0.28;;;;;;;8.38;50.18;100866.66;5110702;28;20051;-82
2023/04/23 00:46:07;;;;;;;5.88;0.30;;;;;;;8.33;49.80;100860.59;5111880;28;20044;-81
2023/04/23 00:48:35;;;;;;;2.28;0.40;;;;;;;8.30;50.33;100863.22;5111248;28;20060;-81
2023/04/23 00:51:04;;;;;;;2.83;0.47;;;;;;;8.26;50.04;100861.53;5100028;28;20055;-81
2023/04/23 00:53:32;;;;;;;0.98;0.20;;;;;;;8.20;50.38;100852.03;5103314;28;20040;-81
2023/04/23 00:56:03;;;;;;;2.70;0.25;;;;;;;8.17;50.09;100854.66;5099732;28;20518;-81
2023/04/23 00:58:30;;;;;;;3.92;0.52;;;;;;;8.14;50.31;100851.19;5109805;28;20040;-81
2023/04/23 01:00:58;;;;;;;1.90;0.30;;;;;;;8.10;50.50;100851.22;5106333;28;20047;-82
2023/04/23 01:03:26;;;;;;;1.73;0.40;;;;;;;8.06;50.38;100853.88;5113021;28;20118;-82
2023/04/23 01:05:53;;;;;;;2.85;0.30;;;;;;;8.00;50.67;100849.59;5101702;28;20059;-82
2023/04/23 01:08:21;;;;;;;3.45;0.30;;;;;;;7.97;50.70;100853.91;5109215;28;20044;-80
2023/04/23 01:10:49;;;;;;;3.17;0.20;;;;;;;7.93;50.67;100847.88;5109992;28;20040;-81
2023/04/23 01:13:18;;;;;;;4.85;0.38;;;;;;;7.88;50.80;100845.31;5103565;28;20048;-81
2023/04/23 01:15:45;;;;;;;5.88;0.38;;;;;;;7.78;50.97;100846.25;5110814;28;20051;-81
2023/04/23 01:18:12;;;;;;;0.82;0.30;;;;;;;7.80;51.03;100851.44;5106256;28;20042;-81
2023/04/23 01:20:39;;;;;;;2.65;0.20;;;;;;;7.77;50.91;100851.44;5097983;28;20044;-80
2023/04/23 01:23:08;;;;;;;4.68;0.40;;;;;;;7.72;51.06;100848.88;5111719;28;20049;-81
2023/04/23 01:25:35;;;;;;;1.13;0.30;;;;;;;7.67;51.14;100845.44;5112618;27;20059;-82
2023/04/23 01:28:02;;;;;;;1.25;0.20;;;;;;;7.64;50.84;100837.66;5110855;27;20051;-81
2023/04/23 01:30:32;;;;;;;6.90;0.30;;;;;;;7.60;51.35;100843.75;5110426;27;20512;-81
2023/04/23 01:32:59;;;;;;;3.50;0.30;;;;;;;7.55;51.54;100840.31;5111720;27;20047;-81
2023/04/23 01:35:26;;;;;;;1.85;0.20;;;;;;;7.51;51.84;100834.25;5112494;27;20047;-81
2023/04/23 01:37:55;;;;;;;3.42;0.32;;;;;;;7.47;51.70;100834.28;5112510;27;20414;-81
2023/04/23 01:40:23;;;;;;;2.28;0.30;;;;;;;7.43;51.77;100831.69;5114204;27;20101;-81
2023/04/23 01:42:50;;;;;;;1.17;0.30;;;;;;;7.40;51.75;100836.91;5118767;27;20051;-81
2023/04/23 01:45:18;;;;;;;5.97;0.30;;;;;;;7.37;52.12;100831.75;5113267;28;20108;-81
2023/04/23 01:47:45;;;;;;;3.42;0.30;;;;;;;7.33;51.96;100834.34;5112786;27;20126;-80
2023/04/23 01:50:12;;;;;;;2.83;0.73;;;;;;;7.26;51.97;100828.31;5119723;27;20039;-81
2023/04/23 01:52:40;;;;;;;0.80;0.52;;;;;;;7.26;52.27;100830.91;5110937;28;20140;-81
2023/04/23 01:55:08;;;;;;;0.52;0.22;;;;;;;7.24;52.18;100831.78;5116600;27;20046;-81
2023/04/23 01:57:36;;;;;;;4.88;0.30;;;;;;;7.20;52.37;100828.34;5121948;27;20054;-81
2023/04/23 02:00:08;;;;;;;3.33;0.25;;;;;;;7.18;52.48;100840.47;5114318;27;20131;-81
2023/04/23 02:02:35;;;;;;;2.28;1.48;;;;;;;7.15;52.63;100833.53;5114986;27;20048;-81
2023/04/23 02:05:04;;;;;;;0.75;0.30;;;;;;;7.13;52.77;100832.69;5114695;27;20050;-81
2023/04/23 02:07:31;;;;;;;1.73;0.30;;;;;;;7.10;52.63;100842.22;5108204;27;20056;-81
2023/04/23 02:09:58;;;;;;;5.07;0.30;;;;;;;7.07;52.68;100837.03;5124091;27;20043;-81
2023/04/23 02:12:26;;;;;;;7.88;0.50;;;;;;;7.05;52.96;100838.78;5115602;27;20047;-80
2023/04/23 02:14:54;;;;;;;1.00;0.30;;;;;;;6.99;53.20;100832.72;5110360;28;20066;-81
2023/04/23 02:17:22;;;;;;;4.03;0.20;;;;;;;6.99;53.21;100840.50;5105248;28;20048;-81
2023/04/23 02:19:50;;;;;;;6.53;0.40;;;;;;;6.97;53.53;100833.59;5112428;28;20130;-80
2023/04/23 02:22:17;;;;;;;1.35;0.30;;;;;;;6.95;53.50;100831.00;5116560;27;20043;-81
2023/04/23 02:24:46;;;;;;;1.77;0.30;;;;;;;6.93;53.63;100827.53;5112687;28;20043;-81
2023/04/23 02:27:12;;;;;;;4.38;0.30;;;;;;;6.92;53.69;100828.44;5107875;27;20554;-80
2023/04/23 02:29:40;;;;;;;3.70;0.30;;;;;;;6.91;53.71;100821.47;5112186;27;20039;-80
2023/04/23 02:32:08;;;;;;;5.47;0.55;;;;;;;6.89;53.89;100820.66;5111882;27;20047;-81
2023/04/23 02:34:35;;;;;;;2.10;0.30;;;;;;;6.86;53.94;100818.06;5107429;28;20052;-80
2023/04/23 02:37:03;;;;;;;3.45;0.30;;;;;;;6.86;54.15;100812.88;5109203;28;20043;-81
2023/04/23 02:39:30;;;;;;;2.50;0.30;;;;;;;6.85;54.43;100821.50;5103766;27;20044;-81
2023/04/23 02:41:58;;;;;;;4.38;0.30;;;;;;;6.81;54.33;100813.75;5113501;27;20048;-81
2023/04/23 02:44:25;;;;;;;7.13;0.35;;;;;;;6.79;54.30;100807.69;5113400;27;20043;-80
2023/04/23 02:46:52;;;;;;;1.33;0.30;;;;;;;6.82;54.33;100820.66;5109364;28;20058;-75
2023/04/23 02:49:20;;;;;;;1.27;0.30;;;;;;;6.81;54.56;100830.19;5109440;28;20048;-75
2023/04/23 02:51:47;;;;;;;1.58;0.40;;;;;;;6.78;54.54;100850.09;5097712;28;20535;-75
2023/04/23 02:54:14;;;;;;;3.42;0.40;;;;;;;6.75;54.52;100832.78;5108239;28;20048;-75
2023/04/23 02:56:41;;;;;;;1.83;0.40;;;;;;;6.67;55.04;100850.09;5104938;28;20054;-76
2023/04/23 02:59:08;;;;;;;5.57;0.50;;;;;;;6.63;55.44;100848.38;5100516;28;20047;-75
2023/04/23 03:01:35;;;;;;;3.72;0.40;;;;;;;6.59;55.21;100839.72;5109000;27;20048;-76
2023/04/23 03:04:03;;;;;;;5.88;0.30;;;;;;;6.56;55.42;100851.84;5105718;28;20047;-75
2023/04/23 03:06:33;;;;;;;3.55;0.35;;;;;;;6.53;55.55;100842.34;5104947;28;20085;-75
2023/04/23 03:09:00;;;;;;;1.77;0.43;;;;;;;6.49;55.66;100841.47;5106784;28;20048;-75
2023/04/23 03:11:27;;;;;;;2.25;0.43;;;;;;;6.47;55.62;100830.22;5110260;27;20043;-75
2023/04/23 03:13:54;;;;;;;1.67;0.50;;;;;;;6.44;55.94;100844.94;5106232;28;20665;-76
2023/04/23 03:16:21;;;;;;;1.02;0.30;;;;;;;6.43;55.94;100820.72;5106666;27;20047;-76
2023/04/23 03:18:48;;;;;;;1.85;0.50;;;;;;;6.39;55.98;100826.75;5106483;28;20055;-75
2023/04/23 03:21:14;;;;;;;7.65;0.50;;;;;;;6.37;56.13;100828.50;5109408;27;20048;-75
2023/04/23 03:23:43;;;;;;;5.35;1.95;;;;;;;6.36;56.35;100829.38;5107600;28;20507;-75
2023/04/23 03:26:09;;;;;;;6.63;0.30;;;;;;;6.33;56.33;100828.50;5106819;27;20048;-77
2023/04/23 03:28:36;;;;;;;1.25;0.30;;;;;;;6.30;56.20;100822.44;5109481;27;20044;-75
2023/04/23 03:31:03;;;;;;;2.05;0.38;;;;;;;6.28;56.50;100841.47;5108653;28;20047;-75
2023/04/23 03:33:30;;;;;;;2.30;0.30;;;;;;;6.27;56.37;100838.00;5105407;28;20942;-75
2023/04/23 03:35:57;;;;;;;0.85;0.40;;;;;;;6.24;56.47;100826.78;5109572;28;20073;-75
2023/04/23 03:38:24;;;;;;;1.20;0.30;;;;;;;6.22;56.58;100825.91;5107038;28;20044;-75
2023/04/23 03:40:53;;;;;;;1.13;0.43;;;;;;;6.20;56.60;100832.81;5107122;27;20051;-75
2023/04/23 03:43:20;;;;;;;1.48;0.32;;;;;;;6.20;56.51;100832.81;5106490;28;20058;-75
2023/04/23 03:45:47;;;;;;;0.80;0.30;;;;;;;6.18;56.60;100825.06;5104302;28;20055;-75
2023/04/23 03:48:14;;;;;;;2.63;0.52;;;;;;;6.15;56.86;100816.38;5106302;27;20746;-75
2023/04/23 03:50:41;;;;;;;3.20;0.40;;;;;;;6.13;57.04;100829.38;5107991;27;20065;-75
2023/04/23 03:53:10;;;;;;;2.17;0.50;;;;;;;6.12;56.87;100825.06;5107052;27;20560;-75
2023/04/23 03:55:36;;;;;;;0.30;0.30;;;;;;;6.08;57.04;100815.53;5107883;28;20059;-78
2023/04/23 03:58:05;;;;;;;5.63;0.47;;;;;;;6.06;57.01;100812.94;5104648;28;20047;-74
2023/04/23 04:00:31;;;;;;;1.05;0.30;;;;;;;6.06;57.09;100823.31;5102659;28;20528;-76
2023/04/23 04:02:59;;;;;;;1.02;0.40;;;;;;;6.03;56.98;100823.31;5107899;28;20047;-75
2023/04/23 04:05:26;;;;;;;2.28;0.30;;;;;;;6.02;57.39;100818.97;5106734;28;20043;-75
2023/04/23 04:07:53;;;;;;;4.00;0.60;;;;;;;6.02;57.49;100812.94;5107296;28;20055;-75
2023/04/23 04:10:20;;;;;;;4.88;0.70;;;;;;;6.02;57.39;100815.53;5110310;28;20501;-76
2023/04/23 04:12:47;;;;;;;2.92;0.40;;;;;;;6.02;57.69;100816.38;5107137;28;20039;-75
2023/04/23 04:15:16;;;;;;;5.13;0.50;;;;;;;6.02;57.78;100821.56;5104644;28;20048;-76
2023/04/23 04:17:44;;;;;;;1.33;0.35;;;;;;;6.04;57.77;100826.78;5104609;28;20492;-75
2023/04/23 04:20:12;;;;;;;7.18;0.40;;;;;;;6.06;57.79;100822.44;5107088;28;20044;-75
2023/04/23 04:22:39;;;;;;;1.63;0.38;;;;;;;6.07;58.24;100821.59;5108928;28;20054;-75
2023/04/23 04:25:07;;;;;;;7.63;0.40;;;;;;;6.08;58.40;100813.78;5106844;28;20044;-75
2023/04/23 04:27:34;;;;;;;4.43;0.43;;;;;;;6.13;58.34;100815.53;5107681;28;20491;-75
2023/04/23 04:30:01;;;;;;;3.15;0.30;;;;;;;6.15;58.85;100813.78;5109248;28;20050;-76
2023/04/23 04:32:29;;;;;;;2.30;0.38;;;;;;;6.19;59.15;100820.72;5107696;28;20044;-75
2023/04/23 04:34:57;;;;;;;1.55;0.60;;;;;;;6.22;59.23;100813.78;5106410;28;20048;-74
2023/04/23 04:37:25;;;;;;;3.80;0.55;;;;;;;6.26;59.49;100806.88;5108152;28;20854;-77
2023/04/23 04:39:53;;;;;;;0.90;0.40;;;;;;;6.30;59.77;100812.06;5103633;28;20040;-76
2023/04/23 04:42:20;;;;;;;5.07;0.40;;;;;;;6.36;60.25;100808.59;5109302;28;20082;-75
2023/04/23 04:44:46;;;;;;;1.05;0.50;;;;;;;6.43;59.83;100807.75;5103685;28;20044;-76
2023/04/23 04:47:15;;;;;;;3.90;0.45;;;;;;;6.50;59.79;100804.28;5107017;28;20061;-76
2023/04/23 04:49:43;;;;;;;4.43;0.63;;;;;;;6.57;60.01;100804.25;5111643;28;20047;-76
2023/04/23 04:52:11;;;;;;;4.07;0.40;;;;;;;6.64;59.98;100806.00;5103499;28;20051;-77
2023/04/23 04:54:37;;;;;;;9.07;0.50;;;;;;;6.74;60.32;100811.16;5113853;27;20047;-76
2023/04/23 04:57:05;;;;;;;3.83;0.40;;;;;;;6.84;60.38;100805.94;5119194;27;20047;-76
2023/04/23 04:59:32;;;;;;;3.15;0.75;;;;;;;6.94;60.47;100805.94;5113132;27;20085;-76
2023/04/23 05:01:59;;;;;;;1.85;0.52;;;;;;;7.04;60.13;100806.75;5113933;27;20071;-76
2023/04/23 05:04:26;;;;;;;2.35;0.30;;;;;;;7.17;59.84;100802.34;5112863;27;20481;-77
2023/04/23 05:06:55;;;;;;;2.40;0.47;;;;;;;7.26;59.66;100804.94;5113273;27;20054;-76
2023/04/23 05:09:22;;;;;;;2.05;0.43;;;;;;;7.36;59.90;100796.19;5114714;27;20130;-76
2023/04/23 05:11:48;;;;;;;1.20;0.30;;;;;;;7.48;59.52;100807.41;5117642;27;20498;-76
2023/04/23 05:14:15;;;;;;;2.10;0.30;;;;;;;7.57;59.66;100796.94;5103758;28;20050;-76
2023/04/23 05:16:42;;;;;;;6.85;0.40;;;;;;;7.65;59.39;100800.38;5100481;28;20050;-77
2023/04/23 05:19:09;;;;;;;1.85;0.55;;;;;;;7.75;59.55;100796.00;5110880;28;20093;-77
2023/04/23 05:21:36;;;;;;;3.95;1.20;;;;;;;7.84;59.21;100801.13;5111689;28;20101;-77
2023/04/23 05:24:05;;;;;;;1.73;0.50;;;;;;;7.93;59.22;100800.19;5106774;28;20048;-77
2023/04/23 05:26:31;;;;;;;2.78;0.70;;;;;;;8.02;59.01;100794.94;5112441;28;20043;-77
2023/04/23 05:28:58;;;;;;;15.75;1.15;;;;;;;8.11;59.06;100793.13;5120336;27;20410;-81
2023/04/23 05:31:25;;;;;;;4.82;0.40;;;;;;;8.20;59.19;100786.13;5112273;27;20051;-77
2023/04/23 05:33:53;;;;;;;1.40;0.50;;;;;;;8.27;58.82;100780.84;5108268;28;20066;-76
2023/04/23 05:36:20;;;;;;;7.97;0.65;;;;;;;8.40;59.11;100796.41;5114470;27;20036;-77
2023/04/23 05:38:48;;;;;;;3.92;0.50;;;;;;;8.47;59.01;100788.50;5112709;27;20047;-77
2023/04/23 05:41:16;;;;;;;2.13;0.40;;;;;;;8.54;59.03;100784.13;5119448;27;20044;-76
2023/04/23 05:43:43;;;;;;;1.67;0.40;;;;;;;8.63;58.79;100785.75;5115063;27;20047;-79
2023/04/23 05:46:10;;;;;;;1.63;0.50;;;;;;;8.70;58.84;100782.19;5107301;28;20047;-79
2023/04/23 05:48:37;;;;;;;4.32;0.43;;;;;;;8.76;58.58;100790.78;5112193;27;20044;-75
2023/04/23 05:51:04;;;;;;;2.95;0.55;;;;;;;8.81;58.41;100784.69;5110742;28;20048;-76
2023/04/23 05:53:31;;;;;;;3.88;0.63;;;;;;;8.87;58.36;100776.81;5111153;27;20743;-76
2023/04/23 05:55:58;;;;;;;5.72;0.60;;;;;;;8.92;58.68;100782.84;5111004;28;20051;-76
2023/04/23 05:58:26;;;;;;;0.77;0.38;;;;;;;9.00;58.26;100778.41;5108870;28;20055;-76
2023/04/23 06:00:54;;;;;;;3.22;0.57;;;;;;;9.07;58.31;100780.03;5110655;27;20058;-76
2023/04/23 06:03:20;;;;;;;4.47;1.65;;;;;;;9.14;58.32;100763.44;5114097;27;20510;-75
2023/04/23 06:05:47;;;;;;;3.92;0.60;;;;;;;9.20;57.93;100771.19;5107258;28;20047;-76
2023/04/23 06:08:14;;;;;;;6.25;0.57;;;;;;;9.30;57.58;100769.31;5110934;28;20482;-76
2023/04/23 06:10:41;;;;;;;1.42;0.40;;;;;;;9.38;57.60;100775.28;5108159;27;20047;-76
2023/04/23 06:13:09;;;;;;;3.80;0.45;;;;;;;9.46;57.71;100769.97;5109504;27;20452;-76
2023/04/23 06:15:37;;;;;;;4.82;0.75;;;;;;;9.53;57.75;100761.16;5102138;28;20059;-76
2023/04/23 06:18:05;;;;;;;2.05;0.60;;;;;;;9.58;57.55;100761.97;5112228;28;20051;-77
2023/04/23 06:20:31;;;;;;;2.15;0.50;;;;;;;9.68;57.24;100760.97;5114197;27;20047;-76
2023/04/23 06:22:58;;;;;;;3.85;0.50;;;;;;;9.76;57.12;100770.41;5107375;28;20062;-76
2023/04/23 06:25:25;;;;;;;2.00;0.57;;;;;;;9.82;57.62;100759.91;5107808;27;20046;-75
2023/04/23 06:27:52;;;;;;;1.35;0.40;;;;;;;9.91;57.06;100765.81;5109069;27;20047;-73
2023/04/23 06:30:19;;;;;;;5.30;0.40;;;;;;;9.99;57.53;100757.88;5106676;28;20044;-75
2023/04/23 06:32:47;;;;;;;2.42;0.30;;;;;;;10.08;56.88;100757.72;5102580;28;20040;-74
2023/04/23 06:35:14;;;;;;;2.33;1.15;;;;;;;10.16;57.02;100759.31;5108314;27;20040;-78
2023/04/23 06:37:41;;;;;;;3.92;0.60;;;;;;;10.23;56.84;100756.59;5106760;28;20047;-72
2023/04/23 06:40:08;;;;;;;6.03;1.40;;;;;;;10.31;56.47;100748.66;5104892;28;20040;-74
2023/04/23 06:42:35;;;;;;;2.30;0.40;;;;;;;10.39;56.56;100744.16;5105578;28;20613;-73
2023/04/23 06:45:03;;;;;;;5.20;0.57;;;;;;;10.49;56.75;100752.69;5104621;28;20043;-74
2023/04/23 06:47:30;;;;;;;3.97;0.50;;;;;;;10.56;56.49;100744.72;5107401;28;20134;-74
2023/04/23 06:49:59;;;;;;;3.95;0.70;;;;;;;10.67;56.13;100751.47;5105387;27;20552;-75
2023/04/23 06:52:27;;;;;;;1.27;0.30;;;;;;;10.75;55.83;100742.59;5104776;27;20048;-76
2023/04/23 06:54:54;;;;;;;1.63;0.52;;;;;;;10.86;55.66;100747.63;5107229;28;20044;-75
2023/04/23 06:57:20;;;;;;;2.72;0.40;;;;;;;10.94;55.62;100750.06;5107420;28;20051;-73
2023/04/23 06:59:47;;;;;;;2.10;0.32;;;;;;;11.03;55.36;100750.75;5096006;28;20040;-74
2023/04/23 07:02:14;;;;;;;0.90;0.30;;;;;;;11.14;55.54;100742.69;5101216;28;20514;-73
2023/04/23 07:04:41;;;;;;;4.80;0.30;;;;;;;11.22;55.25;100740.75;5097404;28;20054;-73
2023/04/23 07:07:09;;;;;;;2.05;0.30;;;;;;;11.35;55.41;100743.97;5101017;28;20044;-73
2023/04/23 07:09:36;;;;;;;3.08;0.40;;;;;;;11.49;54.92;100739.28;5106770;27;20043;-73
2023/04/23 07:12:03;;;;;;;0.57;0.30;;;;;;;11.65;54.34;100731.09;5107081;28;20501;-73
2023/04/23 07:14:30;;;;;;;1.17;0.40;;;;;;;11.83;54.32;100733.25;5104456;28;20062;-73
2023/04/23 07:16:57;;;;;;;0.82;0.50;;;;;;;11.98;54.26;100733.81;5105021;27;20047;-73
2023/04/23 07:19:24;;;;;;;1.13;0.93;;;;;;;12.12;53.48;100723.84;5107271;27;20143;-73
2023/04/23 07:21:52;;;;;;;2.72;0.40;;;;;;;12.28;53.71;100726.94;5108533;27;20058;-73
2023/04/23 07:24:20;;;;;;;2.38;0.20;;;;;;;12.44;52.68;100720.41;5108040;28;20522;-74
2023/04/23 07:26:47;;;;;;;3.15;0.28;;;;;;;12.57;52.73;100719.13;5104131;27;20047;-73
2023/04/23 07:29:14;;;;;;;1.58;0.20;;;;;;;12.70;51.84;100717.06;5107570;27;20844;-74
2023/04/23 07:31:41;;;;;;;1.80;0.30;;;;;;;12.85;51.70;100720.13;5107925;27;20407;-73
2023/04/23 07:34:09;;;;;;;3.03;0.30;;;;;;;12.98;51.36;100727.63;5105558;27;20048;-74
2023/04/23 07:36:36;;;;;;;4.65;0.30;;;;;;;13.14;51.18;100712.25;5103400;28;20138;-73
2023/04/23 07:39:04;;;;;;;5.72;0.88;;;;;;;13.33;50.50;100711.75;5098675;27;20051;-72
2023/04/23 07:41:32;;;;;;;1.45;0.20;;;;;;;13.51;50.24;100705.91;5107915;27;20500;-73
2023/04/23 07:43:59;;;;;;;4.85;0.30;;;;;;;13.69;49.73;100702.72;5099669;28;20070;-73
2023/04/23 07:46:26;;;;;;;1.27;0.30;;;;;;;13.87;49.29;100708.28;5102984;28;20427;-73
2023/04/23 07:48:54;;;;;;;3.30;0.50;;;;;;;14.08;48.81;100709.31;5103941;28;20054;-73
2023/04/23 07:51:25;;;;;;;0.38;0.30;;;;;;;14.28;48.32;100703.38;5104443;28;20499;-73
2023/04/23 07:53:53;;;;;;;2.10;0.30;;;;;;;14.45;47.78;100694.88;5106677;28;20058;-73
2023/04/23 07:56:20;;;;;;;2.55;0.17;;;;;;;14.61;46.88;100691.69;5104822;28;20142;-73
2023/04/23 07:58:48;;;;;;;0.38;0.20;;;;;;;14.82;47.08;100690.03;5104826;28;20050;-73
2023/04/23 08:01:15;;;;;;;4.00;0.30;;;;;;;15.06;46.00;100693.50;5099716;28;20050;-73
2023/04/23 08:03:42;;;;;;;4.28;0.28;;;;;;;15.26;44.93;100676.09;5106922;28;20051;-74
2023/04/23 08:06:11;;;;;;;3.20;0.20;;;;;;;15.46;45.28;100681.44;5101474;28;20069;-74
2023/04/23 08:08:37;;;;;;;2.00;0.30;;;;;;;15.65;44.69;100680.66;5103233;28;20419;-74
2023/04/23 08:11:05;;;;;;;1.95;0.30;;;;;;;15.79;43.98;100673.09;5103651;28;20043;-74
2023/04/23 08:13:32;;;;;;;2.83;0.20;;;;;;;15.93;43.42;100670.72;5104857;28;20059;-75
2023/04/23 08:16:00;;;;;;;3.47;0.20;;;;;;;16.08;43.48;100665.72;5103959;28;20055;-74
2023/04/23 08:18:27;;;;;;;4.18;0.30;;;;;;;16.18;42.60;100664.41;5107125;28;20054;-75
2023/04/23 08:20:56;;;;;;;2.20;0.20;;;;;;;16.12;42.27;100643.59;5103495;28;20154;-75
2023/04/23 08:23:23;;;;;;;2.33;0.22;;;;;;;16.33;41.94;100669.00;5108420;28;20039;-74
2023/04/23 08:25:50;;;;;;;3.80;0.30;;;;;;;16.39;42.25;100675.78;5104823;28;20059;-75
2023/04/23 08:28:17;;;;;;;5.47;0.30;;;;;;;16.39;41.81;100654.69;5108195;27;20058;-74
2023/04/23 08:30:44;;;;;;;4.85;0.30;;;;;;;16.50;41.27;100670.88;5110520;28;20046;-75
2023/04/23 08:33:12;;;;;;;5.45;0.60;;;;;;;16.53;41.09;100675.19;5106523;28;20048;-75
2023/04/23 08:35:40;;;;;;;1.52;0.45;;;;;;;16.55;41.03;100676.81;5108539;27;20579;-75
2023/04/23 08:38:06;;;;;;;3.22;0.40;;;;;;;16.58;40.89;100678.47;5103779;27;20048;-75
2023/04/23 08:40:37;;;;;;;6.82;0.82;;;;;;;16.62;41.00;100675.63;5107130;28;20050;-75
2023/04/23 08:43:11;;;;;;;3.35;0.30;;;;;;;16.64;40.34;100657.09;5105119;27;20455;-75
2023/04/23 08:45:41;;;;;;;2.10;0.30;;;;;;;16.63;39.48;100660.66;5105017;28;20134;-75
2023/04/23 08:48:10;;;;;;;0.55;0.20;;;;;;;16.63;39.76;100656.25;5106177;27;20047;-75
2023/04/23 08:50:41;;;;;;;3.50;0.20;;;;;;;16.64;39.86;100662.38;5105360;28;20047;-75
2023/04/23 08:53:09;;;;;;;1.15;0.30;;;;;;;16.66;39.64;100664.94;5091016;27;20480;-75
2023/04/23 08:55:36;;;;;;;3.58;0.30;;;;;;;16.68;39.45;100660.44;5087974;28;20086;-75
2023/04/23 08:58:05;;;;;;;2.10;0.47;;;;;;;16.68;39.36;100653.41;5083693;28;20048;-75
2023/04/23 09:00:34;;;;;;;2.05;0.20;;;;;;;16.69;39.44;100649.81;5081110;28;20076;-75
2023/04/23 09:03:02;;;;;;;1.05;0.30;;;;;;;16.70;38.91;100650.69;5083694;28;20097;-75
2023/04/23 09:05:31;;;;;;;4.10;0.28;;;;;;;16.70;39.12;100656.81;5090124;28;20036;-76
2023/04/23 09:08:02;;;;;;;2.28;0.28;;;;;;;16.71;39.07;100647.97;5083840;28;20109;-76
2023/04/23 09:10:30;;;;;;;5.82;0.85;;;;;;;16.72;38.99;100652.31;5088130;28;20048;-75
2023/04/23 09:13:00;;;;;;;3.25;0.50;;;;;;;16.73;39.29;100648.75;5085770;28;20127;-75
2023/04/23 09:15:35;;;;;;;3.65;0.30;;;;;;;16.53;39.34;100623.28;5088767;28;20077;-75
2023/04/23 09:18:02;;;;;;;1.55;0.20;;;;;;;16.78;38.85;100659.13;5086359;28;20040;-76
2023/04/23 09:20:29;;;;;;;0.93;0.30;;;;;;;16.78;38.74;100652.06;5086582;28;20503;-78
2023/04/23 09:22:56;;;;;;;1.75;0.22;;;;;;;16.79;38.43;100651.16;5089916;28;20151;-75
2023/04/23 09:25:24;;;;;;;2.97;0.50;;;;;;;16.79;38.29;100643.25;5084805;28;20131;-76
2023/04/23 09:27:52;;;;;;;1.83;0.20;;;;;;;16.82;38.42;100642.22;5085307;28;20052;-76
2023/04/23 09:30:19;;;;;;;2.00;0.30;;;;;;;16.82;38.35;100635.19;5085528;28;20044;-76
2023/04/23 09:32:48;;;;;;;3.90;0.40;;;;;;;16.85;38.19;100639.47;5087294;28;20044;-77
2023/04/23 09:35:16;;;;;;;0.73;0.30;;;;;;;16.86;38.55;100638.53;5088677;28;20560;-75
2023/04/23 09:37:47;;;;;;;0.68;0.22;;;;;;;16.87;38.14;100637.59;5085136;28;20099;-76
2023/04/23 09:40:15;;;;;;;0.77;0.40;;;;;;;16.86;38.26;100644.66;5086040;28;20048;-76
2023/04/23 09:42:48;;;;;;;2.70;0.40;;;;;;;16.86;38.36;100634.09;5082832;28;20536;-76
2023/04/23 09:45:15;;;;;;;5.45;0.30;;;;;;;16.90;38.02;100636.59;5080060;28;20044;-76
2023/04/23 09:47:49;;;;;;;6.53;0.50;;;;;;;16.91;38.52;100635.69;5090084;28;20044;-77
2023/04/23 09:50:16;;;;;;;2.92;0.20;;;;;;;16.92;38.03;100622.41;5083274;28;20059;-77
2023/04/23 09:52:43;;;;;;;2.50;0.20;;;;;;;16.89;37.90;100616.44;5082588;28;20055;-76
2023/04/23 09:55:10;;;;;;;2.90;0.63;;;;;;;16.81;37.97;100611.50;5082422;28;20048;-77
2023/04/23 09:57:37;;;;;;;2.97;0.20;;;;;;;16.86;38.02;100620.06;5085881;28;20563;-78
2023/04/23 10:00:17;;;;;;;2.78;0.30;;;;;;;16.82;37.63;100619.38;5090366;28;20050;-77
2023/04/23 10:02:48;;;;;;;2.70;0.22;;;;;;;16.80;37.79;100623.84;5085160;28;20533;-78
2023/04/23 10:05:16;;;;;;;3.25;0.30;;;;;;;16.77;37.88;100612.59;5086774;28;20048;-77
2023/04/23 10:07:44;;;;;;;3.53;0.30;;;;;;;16.77;37.79;100616.06;5085052;28;20404;-77
2023/04/23 10:10:11;;;;;;;1.05;0.30;;;;;;;16.76;37.77;100609.09;5086742;28;20523;-77
2023/04/23 10:12:38;;;;;;;2.78;0.50;;;;;;;16.72;37.41;100615.41;5090057;28;20695;-76
2023/04/23 10:15:08;;;;;;;2.20;0.20;;;;;;;16.69;37.88;100605.00;5085882;28;20049;-77
2023/04/23 10:17:37;;;;;;;2.30;0.45;;;;;;;16.67;37.61;100603.34;5086044;28;20058;-76
2023/04/23 10:20:05;;;;;;;1.90;0.20;;;;;;;16.65;37.57;100600.81;5089972;28;20048;-77
2023/04/23 10:22:34;;;;;;;4.03;0.20;;;;;;;16.60;37.71;100593.09;5088972;28;20101;-77
2023/04/23 10:25:07;;;;;;;3.40;0.20;;;;;;;16.60;37.56;100592.25;5089083;28;20048;-77
2023/04/23 10:27:38;;;;;;;1.00;0.20;;;;;;;16.41;37.47;100560.59;5083239;28;20724;-77
2023/04/23 10:30:07;;;;;;;0.50;0.13;;;;;;;16.50;37.23;100586.50;5083049;28;20059;-77
2023/04/23 10:32:37;;;;;;;0.98;0.20;;;;;;;16.31;37.59;100565.44;5082236;28;20059;-77
2023/04/23 10:35:04;;;;;;;1.38;0.20;;;;;;;16.37;37.76;100586.25;5080587;28;20520;-77
2023/04/23 10:37:31;;;;;;;1.52;0.20;;;;;;;16.29;37.82;100585.72;5089187;28;20047;-77
2023/04/23 10:40:06;;;;;;;2.65;0.50;;;;;;;16.15;37.96;100574.94;5084862;28;21706;-76
2023/04/23 10:42:33;;;;;;;1.25;0.60;;;;;;;16.10;38.16;100574.28;5081586;28;20051;-74
2023/04/23 10:45:00;;;;;;;5.57;0.47;;;;;;;16.04;38.45;100577.22;5076693;28;20496;-73
2023/04/23 10:47:27;;;;;;;7.97;0.65;;;;;;;15.99;38.64;100573.91;5082130;28;20510;-75
2023/04/23 10:49:55;;;;;;;7.45;0.30;;;;;;;15.92;38.98;100561.00;5076427;28;20047;-74
2023/04/23 10:52:22;;;;;;;0.68;0.20;;;;;;;15.87;39.13;100560.34;5085741;28;20047;-73
2023/04/23 10:54:56;;;;;;;1.67;0.20;;;;;;;15.85;39.38;100559.59;5084836;28;20056;-75
2023/04/23 10:57:23;;;;;;;1.95;0.20;;;;;;;15.80;39.46;100553.66;5082273;28;20054;-76
2023/04/23 10:59:55;;;;;;;2.08;0.20;;;;;;;15.72;39.46;100550.50;5081513;28;20860;-76
2023/04/23 11:02:24;;;;;;;1.88;0.57;;;;;;;15.69;39.66;100553.28;5082428;28;20427;-75
2023/04/23 11:04:57;;;;;;;0.30;0.10;;;;;;;15.64;39.54;100547.31;5083568;28;20044;-75
2023/04/23 11:07:27;;;;;;;2.92;0.20;;;;;;;15.60;39.78;100551.00;5082450;28;20050;-76
2023/04/23 11:09:56;;;;;;;1.80;0.30;;;;;;;15.52;40.01;100536.38;5085485;28;20108;-74
2023/04/23 11:12:32;;;;;;;0.80;0.30;;;;;;;15.51;40.27;100539.94;5082557;28;20046;-77
2023/04/23 11:15:09;;;;;;;1.75;0.30;;;;;;;15.40;40.41;100523.75;5085811;28;20048;-77
2023/04/23 11:18:02;;;;;;;1.42;0.20;;;;;;;15.42;40.48;100527.16;5086997;28;20056;-77
2023/04/23 11:20:30;;;;;;;1.10;0.20;;;;;;;15.40;40.39;100533.44;5085750;28;20546;-79
2023/04/23 11:22:57;;;;;;;2.28;0.20;;;;;;;15.36;40.74;100527.41;5086990;28;20051;-78
2023/04/23 11:25:25;;;;;;;0.55;0.20;;;;;;;15.34;40.86;100520.50;5088295;28;20117;-77
2023/04/23 11:27:54;;;;;;;2.25;0.43;;;;;;;15.33;40.81;100527.53;5087669;28;20577;-77
2023/04/23 11:30:22;;;;;;;0.98;0.25;;;;;;;15.29;40.90;100523.34;5085808;28;20413;-77
2023/04/23 11:32:51;;;;;;;7.32;0.30;;;;;;;15.28;41.10;100524.25;5088856;28;20186;-77